createdAt,value
2023-05-22T00:01:56.502Z,25.38
2023-05-22T00:04:23.417Z,27.48
2023-05-22T00:06:50.229Z,33.40
2023-05-22T00:09:16.912Z,32.33
2023-05-22T00:11:43.802Z,34.72
2023-05-22T00:14:10.724Z,26.20
2023-05-22T00:16:37.565Z,32.35
2023-05-22T00:19:04.899Z,33.53
2023-05-22T00:21:35.076Z,27.23
2023-05-22T00:24:02.188Z,36.53
2023-05-22T00:26:29.163Z,30.95
2023-05-22T00:28:55.948Z,32.50
2023-05-22T00:31:23.341Z,36.05
2023-05-22T00:33:50.434Z,30.35
2023-05-22T00:36:18.573Z,33.53
2023-05-22T00:38:45.325Z,31.55
2023-05-22T00:41:12.040Z,34.45
2023-05-22T00:43:39.631Z,30.35
2023-05-22T00:46:11.170Z,31.38
2023-05-22T00:48:38.400Z,37.65
2023-05-22T00:51:07.727Z,35.55
2023-05-22T00:53:34.879Z,35.85
2023-05-22T00:56:01.889Z,36.38
2023-05-22T00:58:29.544Z,35.42
2023-05-22T01:00:56.894Z,26.55
2023-05-22T01:03:26.994Z,36.25
2023-05-22T01:05:55.080Z,36.78
2023-05-22T01:08:22.636Z,33.25
2023-05-22T01:10:56.996Z,34.65
2023-05-22T01:13:45.744Z,35.67
2023-05-22T01:16:25.102Z,34.10
2023-05-22T01:19:12.501Z,31.50
2023-05-22T01:22:06.841Z,39.30
2023-05-22T01:24:48.849Z,43.47
2023-05-22T01:27:35.183Z,34.83
2023-05-22T01:30:21.138Z,34.83
2023-05-22T01:32:49.730Z,36.60
2023-05-22T01:35:18.994Z,45.40
2023-05-22T01:37:46.838Z,40.83
2023-05-22T01:40:13.851Z,32.00
2023-05-22T01:42:41.273Z,32.00
2023-05-22T01:45:12.247Z,36.88
2023-05-22T01:47:39.038Z,40.20
2023-05-22T01:50:07.124Z,37.78
2023-05-22T01:52:43.869Z,36.00
2023-05-22T01:55:20.490Z,36.92
2023-05-22T01:58:03.082Z,36.08
2023-05-22T02:00:31.369Z,34.65
2023-05-22T02:03:04.486Z,39.72
2023-05-22T02:05:35.856Z,38.25
2023-05-22T02:08:04.385Z,43.47
2023-05-22T02:10:33.391Z,44.05
2023-05-22T02:13:01.609Z,43.13
2023-05-22T02:15:29.855Z,36.25
2023-05-22T02:18:00.366Z,34.65
2023-05-22T02:20:27.254Z,34.78
2023-05-22T02:22:53.928Z,36.92
2023-05-22T02:25:21.045Z,41.03
2023-05-22T02:27:49.518Z,35.72
2023-05-22T02:30:18.457Z,38.83
2023-05-22T02:32:49.132Z,34.90
2023-05-22T02:35:16.098Z,41.72
2023-05-22T02:37:42.816Z,40.60
2023-05-22T02:40:13.021Z,41.45
2023-05-22T02:42:39.753Z,43.63
2023-05-22T02:45:07.245Z,38.83
2023-05-22T02:47:34.110Z,42.13
2023-05-22T02:50:00.785Z,45.28
2023-05-22T02:52:28.283Z,46.97
2023-05-22T02:54:55.380Z,39.63
2023-05-22T02:57:22.847Z,41.47
2023-05-22T02:59:49.523Z,44.88
2023-05-22T03:02:16.606Z,41.08
2023-05-22T03:04:43.321Z,40.58
2023-05-22T03:07:10.099Z,41.15
2023-05-22T03:09:37.117Z,44.08
2023-05-22T03:12:07.596Z,47.97
2023-05-22T03:14:34.649Z,38.58
2023-05-22T03:17:01.439Z,39.90
2023-05-22T03:19:28.265Z,36.45
2023-05-22T03:21:55.904Z,42.60
2023-05-22T03:24:22.653Z,40.80
2023-05-22T03:26:49.456Z,36.80
2023-05-22T03:29:23.173Z,46.97
2023-05-22T03:31:50.150Z,36.72
2023-05-22T03:34:17.099Z,39.83
2023-05-22T03:36:46.880Z,42.92
2023-05-22T03:39:16.070Z,41.35
2023-05-22T03:41:51.664Z,38.47
2023-05-22T03:44:18.833Z,39.13
2023-05-22T03:46:46.134Z,40.17
2023-05-22T03:49:12.836Z,41.42
2023-05-22T03:51:39.515Z,43.67
2023-05-22T03:54:06.239Z,43.10
2023-05-22T03:56:32.802Z,46.72
2023-05-22T03:58:59.666Z,47.70
2023-05-22T04:01:27.202Z,42.35
2023-05-22T04:03:53.847Z,49.92
2023-05-22T04:06:23.541Z,44.42
2023-05-22T04:08:50.250Z,49.95
2023-05-22T04:11:17.006Z,51.53
2023-05-22T04:13:43.767Z,41.70
2023-05-22T04:16:10.913Z,38.88
2023-05-22T04:18:37.811Z,50.03
2023-05-22T04:21:08.191Z,47.65
2023-05-22T04:23:35.312Z,39.55
2023-05-22T04:26:04.538Z,40.05
2023-05-22T04:28:31.525Z,42.60
2023-05-22T04:30:58.221Z,45.17
2023-05-22T04:33:25.148Z,47.45
2023-05-22T04:35:51.999Z,42.90
2023-05-22T04:38:18.899Z,40.75
2023-05-22T04:40:45.550Z,46.88
2023-05-22T04:43:13.804Z,48.10
2023-05-22T04:45:42.319Z,59.10
2023-05-22T04:48:09.392Z,50.92
2023-05-22T04:50:38.936Z,60.72
2023-05-22T04:53:06.508Z,46.95
2023-05-22T04:55:34.127Z,47.72
2023-05-22T04:58:01.780Z,46.50
2023-05-22T05:00:29.429Z,45.92
2023-05-22T05:02:57.510Z,48.10
2023-05-22T05:05:24.951Z,45.47
2023-05-22T05:07:53.300Z,44.60
2023-05-22T05:10:20.165Z,44.55
2023-05-22T05:12:46.842Z,44.05
2023-05-22T05:15:13.621Z,48.80
2023-05-22T05:17:41.151Z,53.90
2023-05-22T05:20:08.847Z,50.45
2023-05-22T05:22:36.078Z,49.58
2023-05-22T05:25:05.708Z,52.20
2023-05-22T05:27:33.454Z,61.90
2023-05-22T05:30:01.934Z,57.75
2023-05-22T05:35:23.632Z,64.85
2023-05-22T05:38:02.494Z,66.75
2023-05-22T05:40:33.608Z,64.85
2023-05-22T05:43:00.455Z,66.18
2023-05-22T05:45:28.968Z,66.60
2023-05-22T05:47:56.421Z,71.55
2023-05-22T05:50:24.075Z,71.20
2023-05-22T05:52:50.818Z,71.43
2023-05-22T05:55:19.335Z,72.50
2023-05-22T05:57:47.904Z,72.05
2023-05-22T06:00:22.564Z,73.72
2023-05-22T06:02:52.254Z,67.38
2023-05-22T06:05:39.111Z,69.85
2023-05-22T06:08:21.874Z,75.25
2023-05-22T06:10:49.566Z,74.43
2023-05-22T06:13:31.498Z,77.68
2023-05-22T06:16:01.692Z,77.07
2023-05-22T06:18:29.673Z,69.38
2023-05-22T06:20:59.146Z,75.97
2023-05-22T06:23:26.005Z,76.75
2023-05-22T06:25:55.586Z,78.88
2023-05-22T06:28:23.350Z,77.65
2023-05-22T06:30:50.271Z,67.95
2023-05-22T06:33:19.776Z,72.68
2023-05-22T06:35:46.580Z,65.85
2023-05-22T06:38:13.407Z,68.32
2023-05-22T06:40:42.331Z,80.03
2023-05-22T06:43:22.401Z,69.88
2023-05-22T06:45:53.951Z,65.00
2023-05-22T06:48:23.653Z,57.38
2023-05-22T06:51:20.720Z,63.13
2023-05-22T06:53:51.498Z,57.50
2023-05-22T06:56:22.914Z,63.35
2023-05-22T06:59:10.953Z,58.65
2023-05-22T07:01:56.729Z,61.47
2023-05-22T07:04:49.734Z,57.42
2023-05-22T07:07:21.569Z,61.67
2023-05-22T07:09:48.287Z,61.25
2023-05-22T07:12:15.639Z,70.55
2023-05-22T07:14:42.652Z,73.70
2023-05-22T07:17:09.534Z,68.05
2023-05-22T07:19:41.365Z,69.20
2023-05-22T07:22:08.772Z,70.75
2023-05-22T07:24:37.708Z,70.28
2023-05-22T07:27:05.974Z,75.60
2023-05-22T07:29:33.965Z,74.97
2023-05-22T07:32:01.946Z,70.45
2023-05-22T07:34:34.355Z,77.07
2023-05-22T07:37:08.971Z,74.15
2023-05-22T07:39:35.999Z,76.10
2023-05-22T07:42:04.736Z,74.82
2023-05-22T07:44:34.629Z,81.57
2023-05-22T07:47:01.542Z,73.30
2023-05-22T07:49:29.730Z,77.78
2023-05-22T07:51:56.544Z,83.35
2023-05-22T07:54:25.519Z,77.15
2023-05-22T07:56:52.895Z,81.35
2023-05-22T07:59:21.672Z,75.53
2023-05-22T08:01:48.382Z,76.57
2023-05-22T08:04:15.415Z,70.25
2023-05-22T08:06:43.924Z,70.90
2023-05-22T08:09:10.820Z,73.45
2023-05-22T08:11:40.205Z,68.97
2023-05-22T08:14:07.692Z,69.65
2023-05-22T08:16:35.095Z,64.97
2023-05-22T08:19:02.063Z,64.95
2023-05-22T08:21:28.889Z,58.42
2023-05-22T08:23:55.728Z,62.58
2023-05-22T08:26:25.480Z,65.60
2023-05-22T08:28:52.416Z,56.78
2023-05-22T08:31:19.249Z,58.40
2023-05-22T08:33:46.149Z,51.80
2023-05-22T08:36:13.405Z,54.83
2023-05-22T08:38:41.187Z,50.33
2023-05-22T08:41:08.938Z,51.88
2023-05-22T08:43:35.907Z,58.20
2023-05-22T08:46:09.067Z,57.38
2023-05-22T08:48:35.971Z,56.42
2023-05-22T08:51:05.212Z,53.58
2023-05-22T08:53:36.335Z,53.13
2023-05-22T08:56:05.583Z,49.13
2023-05-22T08:58:36.825Z,47.05
2023-05-22T09:01:05.336Z,48.88
2023-05-22T09:03:35.237Z,48.40
2023-05-22T09:06:02.302Z,47.80
2023-05-22T09:08:29.076Z,47.65
2023-05-22T09:10:56.340Z,49.05
2023-05-22T09:13:32.097Z,42.17
2023-05-22T09:16:00.895Z,42.80
2023-05-22T09:18:29.149Z,46.58
2023-05-22T09:20:59.861Z,43.30
2023-05-22T09:23:28.154Z,37.90
2023-05-22T09:25:56.807Z,38.80
2023-05-22T09:28:24.485Z,38.28
2023-05-22T09:30:52.713Z,38.55
2023-05-22T09:33:20.304Z,36.90
2023-05-22T09:35:47.291Z,36.78
2023-05-22T09:38:14.249Z,38.33
2023-05-22T09:40:42.220Z,37.90
2023-05-22T09:43:10.575Z,36.28
2023-05-22T09:45:38.390Z,37.60
2023-05-22T09:48:06.316Z,36.05
2023-05-22T09:50:33.056Z,35.08
2023-05-22T09:53:05.039Z,37.65
2023-05-22T09:55:32.234Z,32.85
2023-05-22T09:58:03.151Z,37.13
2023-05-22T10:00:34.184Z,32.53
2023-05-22T10:03:12.733Z,31.90
2023-05-22T10:05:47.447Z,35.35
2023-05-22T10:08:17.643Z,31.58
2023-05-22T10:10:50.009Z,33.28
2023-05-22T10:13:17.231Z,36.20
2023-05-22T10:15:44.210Z,33.25
2023-05-22T10:18:11.834Z,35.85
2023-05-22T10:20:39.742Z,36.33
2023-05-22T10:23:08.051Z,39.33
2023-05-22T10:25:37.746Z,39.33
2023-05-22T10:28:06.401Z,35.03
2023-05-22T10:30:56.739Z,32.38
2023-05-22T10:33:32.099Z,27.83
2023-05-22T10:36:08.928Z,35.45
2023-05-22T10:38:46.899Z,30.27
2023-05-22T10:41:13.954Z,33.78
2023-05-22T10:43:44.372Z,33.67
2023-05-22T10:46:12.827Z,33.53
2023-05-22T10:48:41.439Z,32.83
2023-05-22T10:51:08.922Z,30.58
2023-05-22T10:53:36.245Z,34.22
2023-05-22T10:56:18.572Z,32.58
2023-05-22T10:58:56.755Z,28.90
2023-05-22T11:01:26.315Z,31.08
2023-05-22T11:04:02.008Z,32.42
2023-05-22T11:06:42.009Z,35.08
2023-05-22T11:09:32.174Z,31.65
2023-05-22T11:12:21.416Z,33.20
2023-05-22T11:14:50.121Z,33.55
2023-05-22T11:17:19.673Z,33.00
2023-05-22T11:20:05.573Z,36.85
2023-05-22T11:22:37.551Z,32.95
2023-05-22T11:25:08.024Z,34.30
2023-05-22T11:27:36.463Z,30.77
2023-05-22T11:30:04.335Z,36.58
2023-05-22T11:32:31.307Z,33.70
2023-05-22T11:34:58.025Z,34.08
2023-05-22T11:37:24.762Z,32.95
2023-05-22T11:39:56.563Z,33.65
2023-05-22T11:42:23.322Z,35.13
2023-05-22T11:44:50.234Z,32.83
2023-05-22T11:47:17.221Z,29.67
2023-05-22T11:49:44.405Z,33.80
2023-05-22T11:52:11.320Z,33.75
2023-05-22T11:54:38.961Z,31.98
2023-05-22T11:57:09.636Z,32.85
2023-05-22T11:59:36.283Z,30.05
2023-05-22T12:02:03.036Z,29.85
2023-05-22T12:04:30.284Z,30.35
2023-05-22T12:06:57.353Z,32.22
2023-05-22T12:09:24.483Z,34.45
2023-05-22T12:11:51.157Z,34.22
2023-05-22T12:14:17.824Z,32.10
2023-05-22T12:16:44.759Z,31.98
2023-05-22T12:19:12.262Z,30.85
2023-05-22T12:21:39.525Z,27.40
2023-05-22T12:24:06.479Z,33.35
2023-05-22T12:26:33.260Z,27.60
2023-05-22T12:29:00.137Z,31.42
2023-05-22T12:31:38.892Z,30.05
2023-05-22T12:34:09.010Z,34.25
2023-05-22T12:36:39.352Z,30.52
2023-05-22T12:39:17.719Z,29.42
2023-05-22T12:41:47.257Z,28.63
2023-05-22T12:44:16.588Z,32.78
2023-05-22T12:46:43.514Z,30.83
2023-05-22T12:49:11.050Z,32.42
2023-05-22T12:51:37.807Z,29.95
2023-05-22T12:54:05.111Z,33.50
2023-05-22T12:56:32.347Z,28.55
2023-05-22T12:58:59.143Z,31.00
2023-05-22T13:01:26.493Z,31.77
2023-05-22T13:03:53.501Z,31.98
2023-05-22T13:06:20.749Z,34.40
2023-05-22T13:08:47.319Z,34.53
2023-05-22T13:11:14.130Z,27.25
2023-05-22T13:13:40.767Z,33.15
2023-05-22T13:16:10.199Z,25.88
2023-05-22T13:18:36.843Z,32.90
2023-05-22T13:21:03.881Z,28.38
2023-05-22T13:23:30.839Z,28.60
2023-05-22T13:25:57.799Z,30.70
2023-05-22T13:28:24.583Z,30.77
2023-05-22T13:30:51.271Z,29.98
2023-05-22T13:36:01.144Z,31.63
2023-05-22T13:38:28.161Z,35.53
2023-05-22T13:40:54.877Z,33.08
2023-05-22T13:43:21.646Z,36.97
2023-05-22T13:45:48.428Z,36.28
2023-05-22T13:48:16.049Z,39.63
2023-05-22T13:50:42.956Z,32.35
2023-05-22T13:53:28.144Z,37.33
2023-05-22T13:55:55.222Z,35.15
2023-05-22T13:58:21.890Z,38.75
2023-05-22T14:00:50.032Z,39.28
2023-05-22T14:03:19.844Z,42.60
2023-05-22T14:05:46.625Z,45.38
2023-05-22T14:08:13.505Z,39.65
2023-05-22T14:10:40.478Z,40.65
2023-05-22T14:13:08.832Z,43.88
2023-05-22T14:15:38.354Z,37.45
2023-05-22T14:18:05.199Z,45.45
2023-05-22T14:20:32.039Z,48.45
2023-05-22T14:22:58.811Z,47.38
2023-05-22T14:25:26.301Z,40.15
2023-05-22T14:27:53.294Z,47.42
2023-05-22T14:30:20.097Z,41.97
2023-05-22T14:32:46.910Z,40.92
2023-05-22T14:35:14.360Z,38.92
2023-05-22T14:37:41.077Z,39.78
2023-05-22T14:40:08.546Z,33.45
2023-05-22T14:42:36.268Z,43.30
2023-05-22T14:45:04.089Z,40.35
2023-05-22T14:47:31.013Z,35.63
2023-05-22T14:50:10.247Z,35.95
2023-05-22T14:52:45.415Z,39.80
2023-05-22T14:55:12.105Z,36.75
2023-05-22T14:57:38.823Z,33.63
2023-05-22T15:00:06.854Z,40.92
2023-05-22T15:02:33.800Z,37.55
2023-05-22T15:05:00.685Z,36.38
2023-05-22T15:07:35.987Z,30.60
2023-05-22T15:10:10.734Z,31.25
2023-05-22T15:12:37.536Z,38.97
2023-05-22T15:15:04.596Z,38.08
2023-05-22T15:17:31.293Z,34.25
2023-05-22T15:19:57.991Z,30.83
2023-05-22T15:22:24.776Z,38.95
2023-05-22T15:25:06.343Z,30.67
2023-05-22T15:27:35.040Z,35.00
2023-05-22T15:30:02.627Z,31.17
2023-05-22T15:32:30.621Z,26.10
2023-05-22T15:34:57.384Z,26.83
2023-05-22T15:37:24.123Z,28.25
2023-05-22T15:39:51.019Z,32.00
2023-05-22T15:42:17.676Z,29.17
2023-05-22T15:44:44.292Z,31.92
2023-05-22T15:47:11.196Z,30.55
2023-05-22T15:49:38.159Z,29.08
2023-05-22T15:52:05.124Z,30.60
2023-05-22T15:54:31.784Z,29.88
2023-05-22T15:56:58.594Z,26.58
2023-05-22T15:59:25.375Z,31.80
2023-05-22T16:01:52.725Z,34.35
2023-05-22T16:04:19.583Z,31.23
2023-05-22T16:06:46.329Z,27.83
2023-05-22T16:09:13.100Z,27.27
2023-05-22T16:11:39.732Z,29.10
2023-05-22T16:14:06.455Z,30.48
2023-05-22T16:16:35.319Z,22.45
2023-05-22T16:19:02.014Z,31.27
2023-05-22T16:21:29.136Z,25.05
2023-05-22T16:23:58.162Z,29.02
2023-05-22T16:26:24.884Z,18.92
2023-05-22T16:28:51.533Z,21.27
2023-05-22T16:31:19.863Z,22.38
2023-05-22T16:33:46.849Z,17.08
2023-05-22T16:36:13.841Z,20.58
2023-05-22T16:38:40.685Z,19.48
2023-05-22T16:41:07.364Z,16.65
2023-05-22T16:43:36.595Z,18.58
2023-05-22T16:46:03.419Z,17.40
2023-05-22T16:48:30.257Z,20.25
2023-05-22T16:50:56.986Z,19.52
2023-05-22T16:53:23.780Z,18.33
2023-05-22T16:55:50.474Z,11.32
2023-05-22T16:58:17.180Z,17.02
2023-05-22T17:00:43.894Z,13.27
2023-05-22T17:03:11.951Z,11.68
2023-05-22T17:05:42.319Z,11.77
2023-05-22T17:08:09.572Z,13.40
2023-05-22T17:10:36.273Z,14.52
2023-05-22T17:13:02.915Z,15.20
2023-05-22T17:15:29.661Z,10.98
2023-05-22T17:17:56.582Z,9.75
2023-05-22T17:20:24.784Z,8.95
2023-05-22T17:22:52.412Z,9.43
2023-05-22T17:25:19.203Z,9.00
2023-05-22T17:27:46.490Z,7.65
2023-05-22T17:30:13.351Z,8.18
2023-05-22T17:32:40.226Z,8.75
2023-05-22T17:35:07.731Z,8.05
2023-05-22T17:37:36.245Z,12.13
2023-05-22T17:40:03.972Z,7.00
2023-05-22T17:42:30.626Z,8.18
2023-05-22T17:44:57.371Z,6.57
2023-05-22T17:47:23.999Z,5.63
2023-05-22T17:49:50.930Z,5.38
2023-05-22T17:52:17.571Z,6.43
2023-05-22T17:54:44.318Z,7.07
2023-05-22T17:57:11.765Z,8.45
2023-05-22T17:59:40.295Z,10.77
2023-05-22T18:02:08.885Z,9.57
2023-05-22T18:04:36.310Z,6.28
2023-05-22T18:07:02.933Z,5.65
2023-05-22T18:09:29.602Z,6.53
2023-05-22T18:11:56.286Z,10.52
2023-05-22T18:14:22.988Z,7.22
2023-05-22T18:16:49.760Z,7.72
2023-05-22T18:19:16.439Z,7.65
2023-05-22T18:21:43.243Z,7.40
2023-05-22T18:24:09.983Z,6.50
2023-05-22T18:26:37.739Z,6.57
2023-05-22T18:29:04.461Z,6.72
2023-05-22T18:31:31.303Z,9.02
2023-05-22T18:33:58.064Z,7.90
2023-05-22T18:36:24.839Z,7.75
2023-05-22T18:38:51.546Z,9.55
2023-05-22T18:41:18.191Z,7.35
2023-05-22T18:43:44.892Z,7.60
2023-05-22T18:46:11.607Z,6.18
2023-05-22T18:48:38.302Z,8.57
2023-05-22T18:51:56.269Z,6.00
2023-05-22T18:54:36.888Z,6.93
2023-05-22T18:57:19.529Z,6.90
2023-05-22T18:59:49.689Z,9.57
2023-05-22T19:02:16.989Z,10.38
2023-05-22T19:04:44.044Z,8.65
2023-05-22T19:07:10.885Z,8.80
2023-05-22T19:09:37.700Z,11.27
2023-05-22T19:12:07.638Z,10.18
2023-05-22T19:14:34.242Z,10.18
2023-05-22T19:17:00.902Z,7.57
2023-05-22T19:19:27.682Z,7.10
2023-05-22T19:21:54.478Z,9.52
2023-05-22T19:24:22.512Z,8.82
2023-05-22T19:26:49.152Z,11.75
2023-05-22T19:29:15.872Z,9.10
2023-05-22T19:31:42.645Z,11.23
2023-05-22T19:34:09.334Z,10.57
2023-05-22T19:36:56.428Z,12.30
2023-05-22T19:39:31.351Z,10.57
2023-05-22T19:41:58.026Z,14.43
2023-05-22T19:44:24.717Z,14.10
2023-05-22T19:46:51.636Z,15.05
2023-05-22T19:49:18.883Z,15.68
2023-05-22T19:51:46.238Z,14.20
2023-05-22T19:54:12.903Z,10.60
2023-05-22T19:56:39.809Z,14.95
2023-05-22T19:59:06.629Z,19.25
2023-05-22T20:01:33.493Z,16.85
2023-05-22T20:04:01.080Z,17.33
2023-05-22T20:06:31.564Z,18.92
2023-05-22T20:08:58.380Z,13.75
2023-05-22T20:11:25.079Z,20.63
2023-05-22T20:13:54.397Z,19.88
2023-05-22T20:16:21.302Z,15.48
2023-05-22T20:18:48.852Z,19.05
2023-05-22T20:21:15.541Z,19.88
2023-05-22T20:23:42.164Z,19.63
2023-05-22T20:26:08.733Z,15.48
2023-05-22T20:28:35.374Z,15.65
2023-05-22T20:31:02.207Z,19.05
2023-05-22T20:33:29.085Z,20.27
2023-05-22T20:35:55.848Z,18.73
2023-05-22T20:38:22.666Z,17.98
2023-05-22T20:40:49.583Z,13.25
2023-05-22T20:43:18.580Z,21.52
2023-05-22T20:45:45.770Z,15.65
2023-05-22T20:48:13.650Z,17.63
2023-05-22T20:50:42.149Z,18.77
2023-05-22T20:53:08.835Z,16.55
2023-05-22T20:55:35.741Z,21.02
2023-05-22T20:58:02.323Z,19.95
2023-05-22T21:00:30.109Z,15.52
2023-05-22T21:02:58.347Z,21.90
2023-05-22T21:05:26.340Z,21.55
2023-05-22T21:07:53.471Z,22.25
2023-05-22T21:10:22.678Z,20.08
2023-05-22T21:12:49.274Z,19.52
2023-05-22T21:15:16.292Z,24.77
2023-05-22T21:17:45.785Z,20.50
2023-05-22T21:20:12.766Z,23.17
2023-05-22T21:22:39.830Z,20.70
2023-05-22T21:25:07.129Z,24.50
2023-05-22T21:27:33.696Z,21.45
2023-05-22T21:30:00.523Z,23.85
2023-05-22T21:32:27.138Z,23.10
2023-05-22T21:34:53.978Z,24.98
2023-05-22T21:37:20.588Z,27.17
2023-05-22T21:39:47.222Z,28.70
2023-05-22T21:42:16.217Z,33.13
2023-05-22T21:44:43.037Z,36.53
2023-05-22T21:47:10.181Z,35.50
2023-05-22T21:49:39.434Z,42.47
2023-05-22T21:52:06.382Z,51.20
2023-05-22T21:54:33.121Z,42.75
2023-05-22T21:56:59.802Z,44.50
2023-05-22T21:59:26.615Z,45.90
2023-05-22T22:01:53.318Z,48.15
2023-05-22T22:04:20.307Z,41.85
2023-05-22T22:06:46.983Z,38.67
2023-05-22T22:09:13.665Z,42.83
2023-05-22T22:11:40.258Z,40.28
2023-05-22T22:14:07.677Z,43.42
2023-05-22T22:16:36.049Z,39.45
2023-05-22T22:19:03.363Z,36.35
2023-05-22T22:21:30.559Z,32.65
2023-05-22T22:23:57.635Z,36.55
2023-05-22T22:26:24.287Z,34.83
2023-05-22T22:28:51.448Z,37.20
2023-05-22T22:31:18.309Z,34.75
2023-05-22T22:33:45.128Z,37.45
2023-05-22T22:36:11.723Z,37.65
2023-05-22T22:38:38.597Z,33.53
2023-05-22T22:41:08.517Z,35.78
2023-05-22T22:43:36.118Z,41.33
2023-05-22T22:46:02.778Z,36.97
2023-05-22T22:48:29.611Z,34.03
2023-05-22T22:50:56.300Z,35.72
2023-05-22T22:53:22.943Z,38.33
2023-05-22T22:55:54.772Z,37.08
2023-05-22T22:58:21.692Z,35.80
2023-05-22T23:00:48.616Z,36.45
2023-05-22T23:03:15.579Z,36.97
2023-05-22T23:05:42.975Z,40.15
2023-05-22T23:08:09.824Z,38.38
2023-05-22T23:10:36.428Z,37.90
2023-05-22T23:13:03.146Z,34.60
2023-05-22T23:15:30.093Z,38.17
2023-05-22T23:17:56.925Z,34.25
2023-05-22T23:20:23.716Z,38.30
2023-05-22T23:22:51.143Z,31.45
2023-05-22T23:25:17.963Z,30.98
2023-05-22T23:27:44.603Z,31.88
2023-05-22T23:30:11.847Z,32.88
2023-05-22T23:32:38.524Z,29.63
2023-05-22T23:35:05.774Z,28.98
2023-05-22T23:37:32.402Z,39.20
2023-05-22T23:39:59.276Z,25.83
2023-05-22T23:42:26.020Z,27.13
2023-05-22T23:44:52.652Z,30.77
2023-05-22T23:47:19.311Z,32.80
2023-05-22T23:49:46.037Z,28.58
2023-05-22T23:52:13.181Z,35.63
2023-05-22T23:54:39.806Z,32.03
2023-05-22T23:57:06.490Z,29.13
2023-05-22T23:59:33.263Z,24.60
